createdAt,value
2018-11-12T00:00:19.466Z,11.00
2018-11-12T00:02:57.070Z,11.00
2018-11-12T00:05:29.743Z,11.00
2018-11-12T00:08:01.852Z,10.90
2018-11-12T00:10:35.132Z,10.80
2018-11-12T00:13:06.793Z,10.80
2018-11-12T00:15:39.951Z,10.90
2018-11-12T00:18:12.477Z,10.90
2018-11-12T00:20:44.635Z,10.90
2018-11-12T00:23:16.359Z,10.90
2018-11-12T00:25:48.252Z,10.90
2018-11-12T00:28:20.293Z,10.90
2018-11-12T00:30:53.565Z,10.90
2018-11-12T00:33:25.541Z,10.90
2018-11-12T00:35:57.143Z,10.90
2018-11-12T00:38:28.989Z,10.90
2018-11-12T00:41:01.163Z,10.90
2018-11-12T00:43:32.898Z,10.90
2018-11-12T00:46:15.709Z,10.80
2018-11-12T00:48:47.996Z,10.80
2018-11-12T00:51:19.721Z,10.90
2018-11-12T00:53:52.398Z,10.90
2018-11-12T00:56:24.100Z,10.90
2018-11-12T00:58:56.806Z,10.90
2018-11-12T01:01:28.831Z,10.90
2018-11-12T01:04:00.455Z,10.90
2018-11-12T01:06:32.345Z,10.90
2018-11-12T01:09:05.634Z,10.80
2018-11-12T01:11:37.686Z,10.90
2018-11-12T01:14:10.227Z,10.90
2018-11-12T01:16:42.088Z,10.90
2018-11-12T01:19:14.288Z,10.90
2018-11-12T01:21:46.197Z,10.90
2018-11-12T01:24:18.093Z,10.90
2018-11-12T01:26:50.820Z,10.90
2018-11-12T01:29:22.885Z,10.90
2018-11-12T01:31:56.065Z,11.00
2018-11-12T01:34:27.230Z,10.90
2018-11-12T01:36:59.194Z,11.00
2018-11-12T01:39:32.920Z,11.00
2018-11-12T01:42:05.337Z,11.00
2018-11-12T01:44:36.964Z,11.00
2018-11-12T01:47:09.276Z,11.00
2018-11-12T01:49:41.451Z,11.00
2018-11-12T01:52:14.197Z,11.00
2018-11-12T01:54:46.434Z,11.00
2018-11-12T01:57:18.467Z,11.00
2018-11-12T01:59:50.540Z,11.00
2018-11-12T02:02:22.525Z,11.00
2018-11-12T02:04:54.532Z,10.90
2018-11-12T02:07:27.161Z,10.90
2018-11-12T02:09:59.743Z,10.90
2018-11-12T02:12:31.644Z,10.90
2018-11-12T02:15:04.106Z,10.90
2018-11-12T02:17:36.184Z,10.90
2018-11-12T02:23:08.628Z,10.90
2018-11-12T02:25:40.655Z,10.90
2018-11-12T02:28:12.681Z,10.90
2018-11-12T02:30:49.084Z,10.90
2018-11-12T02:33:20.902Z,10.90
2018-11-12T02:35:52.877Z,10.90
2018-11-12T02:38:25.085Z,10.90
2018-11-12T02:40:57.708Z,10.90
2018-11-12T02:43:30.336Z,11.00
2018-11-12T02:46:04.799Z,11.00
2018-11-12T02:48:36.452Z,11.00
2018-11-12T02:51:08.773Z,11.00
2018-11-12T02:53:41.030Z,11.10
2018-11-12T02:56:13.382Z,11.10
2018-11-12T02:58:45.428Z,11.10
2018-11-12T03:01:22.029Z,11.10
2018-11-12T03:03:54.702Z,11.10
2018-11-12T03:06:27.994Z,11.10
2018-11-12T03:09:02.548Z,11.20
2018-11-12T03:11:35.591Z,11.20
2018-11-12T03:14:07.803Z,11.20
2018-11-12T03:16:40.418Z,11.20
2018-11-12T03:19:13.713Z,11.30
2018-11-12T03:21:45.369Z,11.30
2018-11-12T03:24:17.134Z,11.30
2018-11-12T03:26:49.710Z,11.30
2018-11-12T03:29:21.607Z,11.30
2018-11-12T03:31:54.322Z,11.30
2018-11-12T03:34:26.504Z,11.30
2018-11-12T03:36:58.468Z,11.30
2018-11-12T03:39:30.633Z,11.30
2018-11-12T03:42:03.048Z,11.30
2018-11-12T03:44:36.039Z,11.40
2018-11-12T03:47:08.563Z,11.40
2018-11-12T03:49:40.443Z,11.40
2018-11-12T03:52:12.192Z,11.40
2018-11-12T03:54:45.242Z,11.30
2018-11-12T03:57:17.051Z,11.30
2018-11-12T03:59:48.757Z,11.30
2018-11-12T04:02:21.993Z,11.30
2018-11-12T04:04:53.844Z,11.30
2018-11-12T04:07:25.906Z,11.30
2018-11-12T04:09:57.921Z,11.20
2018-11-12T04:12:29.451Z,11.20
2018-11-12T04:15:01.556Z,11.30
2018-11-12T04:17:34.069Z,11.20
2018-11-12T04:20:06.326Z,11.20
2018-11-12T04:22:39.644Z,11.20
2018-11-12T04:25:12.310Z,11.20
2018-11-12T04:27:47.941Z,11.10
2018-11-12T04:30:20.251Z,11.00
2018-11-12T04:32:52.508Z,11.00
2018-11-12T04:35:24.600Z,11.10
2018-11-12T04:38:03.105Z,11.00
2018-11-12T04:40:34.985Z,10.90
2018-11-12T04:43:07.437Z,11.00
2018-11-12T04:45:39.908Z,11.00
2018-11-12T04:48:12.363Z,11.00
2018-11-12T04:50:44.381Z,11.10
2018-11-12T04:53:16.073Z,11.10
2018-11-12T04:55:48.239Z,11.00
2018-11-12T04:58:20.840Z,11.10
2018-11-12T05:00:53.611Z,11.10
2018-11-12T05:03:28.794Z,11.20
2018-11-12T05:06:00.665Z,11.10
2018-11-12T05:08:32.375Z,11.20
2018-11-12T05:11:04.049Z,11.20
2018-11-12T05:13:35.598Z,11.20
2018-11-12T05:16:07.865Z,11.20
2018-11-12T05:18:39.604Z,11.20
2018-11-12T05:21:12.145Z,11.10
2018-11-12T05:23:44.267Z,11.10
2018-11-12T05:26:16.101Z,11.00
2018-11-12T05:28:47.668Z,11.00
2018-11-12T05:31:19.184Z,11.10
2018-11-12T05:33:51.038Z,11.10
2018-11-12T05:36:23.026Z,11.20
2018-11-12T05:38:55.034Z,11.20
2018-11-12T05:41:27.607Z,11.20
2018-11-12T05:43:59.870Z,11.20
2018-11-12T05:46:31.289Z,11.30
2018-11-12T05:49:03.016Z,11.20
2018-11-12T05:51:35.546Z,11.20
2018-11-12T05:54:06.863Z,11.30
2018-11-12T05:56:38.823Z,11.30
2018-11-12T05:59:11.777Z,11.20
2018-11-12T06:01:43.281Z,11.20
2018-11-12T06:04:15.383Z,11.20
2018-11-12T06:06:47.775Z,11.30
2018-11-12T06:09:19.949Z,11.20
2018-11-12T06:11:51.594Z,11.20
2018-11-12T06:14:23.640Z,11.20
2018-11-12T06:16:55.229Z,11.20
2018-11-12T06:19:27.679Z,11.10
2018-11-12T06:21:59.309Z,11.20
2018-11-12T06:24:31.088Z,11.20
2018-11-12T06:27:03.557Z,11.20
2018-11-12T06:29:35.282Z,11.30
2018-11-12T06:32:07.732Z,11.20
2018-11-12T06:34:38.950Z,11.20
2018-11-12T06:37:10.294Z,11.30
2018-11-12T06:39:41.687Z,11.30
2018-11-12T06:42:19.367Z,11.30
2018-11-12T06:44:50.728Z,11.30
2018-11-12T06:47:24.185Z,11.30
2018-11-12T06:49:55.603Z,11.20
2018-11-12T06:52:27.084Z,11.20
2018-11-12T06:55:00.549Z,11.20
2018-11-12T06:57:31.959Z,11.10
2018-11-12T07:00:03.677Z,11.20
2018-11-12T07:02:38.235Z,11.10
2018-11-12T07:05:10.218Z,11.10
2018-11-12T07:07:41.355Z,11.10
2018-11-12T07:10:20.244Z,11.00
2018-11-12T07:13:08.695Z,11.00
2018-11-12T07:18:32.208Z,11.00
2018-11-12T07:21:03.552Z,11.00
2018-11-12T07:23:35.048Z,11.10
2018-11-12T07:26:06.148Z,11.10
2018-11-12T07:28:39.037Z,11.10
2018-11-12T07:31:10.174Z,11.20
2018-11-12T07:33:41.629Z,11.20
2018-11-12T07:36:12.871Z,11.30
2018-11-12T07:38:44.399Z,11.20
2018-11-12T07:41:16.507Z,11.30
2018-11-12T07:43:47.930Z,11.20
2018-11-12T07:46:19.918Z,11.10
2018-11-12T07:48:51.136Z,11.10
2018-11-12T07:51:22.291Z,11.20
2018-11-12T07:53:58.783Z,11.20
2018-11-12T07:56:30.743Z,11.20
2018-11-12T07:59:01.758Z,11.20
2018-11-12T08:01:32.821Z,11.20
2018-11-12T08:04:04.355Z,11.20
2018-11-12T08:06:35.554Z,11.10
2018-11-12T08:09:08.424Z,11.10
2018-11-12T08:11:39.370Z,11.10
2018-11-12T08:14:10.599Z,11.20
2018-11-12T08:16:41.973Z,11.20
2018-11-12T08:19:13.898Z,11.20
2018-11-12T08:21:45.008Z,11.20
2018-11-12T08:24:16.777Z,11.40
2018-11-12T08:26:47.776Z,11.40
2018-11-12T08:29:19.206Z,11.30
2018-11-12T08:31:51.175Z,11.40
2018-11-12T08:34:22.832Z,11.50
2018-11-12T08:36:53.966Z,11.60
2018-11-12T08:39:25.563Z,11.70
2018-11-12T08:41:56.521Z,11.70
2018-11-12T08:44:27.313Z,11.70
2018-11-12T08:46:58.555Z,11.70
2018-11-12T08:49:29.675Z,11.80
2018-11-12T08:52:00.657Z,11.90
2018-11-12T08:54:32.896Z,12.00
2018-11-12T08:57:03.962Z,12.10
2018-11-12T08:59:35.305Z,12.40
2018-11-12T09:02:06.758Z,12.50
2018-11-12T09:04:37.786Z,12.60
2018-11-12T09:07:09.257Z,12.90
2018-11-12T09:09:40.397Z,13.10
2018-11-12T09:12:22.626Z,13.40
2018-11-12T09:14:54.300Z,13.30
2018-11-12T09:17:28.993Z,13.30
2018-11-12T09:20:04.287Z,13.30
2018-11-12T09:22:35.654Z,13.20
2018-11-12T09:25:08.290Z,13.20
2018-11-12T09:27:39.472Z,13.10
2018-11-12T09:30:12.889Z,13.20
2018-11-12T09:32:44.968Z,13.30
2018-11-12T09:35:17.570Z,13.40
2018-11-12T09:37:50.033Z,13.50
2018-11-12T09:40:26.804Z,13.60
2018-11-12T09:42:57.946Z,13.70
2018-11-12T09:45:29.692Z,13.70
2018-11-12T09:48:04.454Z,13.80
2018-11-12T09:50:35.582Z,13.70
2018-11-12T09:53:07.000Z,13.70
2018-11-12T09:55:38.507Z,13.80
2018-11-12T09:58:10.378Z,13.90
2018-11-12T10:00:42.569Z,13.90
2018-11-12T10:03:15.188Z,13.80
2018-11-12T10:05:46.823Z,13.80
2018-11-12T10:08:18.328Z,13.70
2018-11-12T10:10:54.198Z,13.70
2018-11-12T10:13:27.083Z,13.70
2018-11-12T10:15:58.852Z,13.70
2018-11-12T10:18:27.298Z,13.70
2018-11-12T10:20:58.773Z,13.70
2018-11-12T10:23:31.275Z,13.80
2018-11-12T10:26:03.045Z,14.00
2018-11-12T10:28:34.906Z,14.10
2018-11-12T10:31:06.582Z,14.10
2018-11-12T10:33:37.744Z,14.10
2018-11-12T10:36:09.887Z,14.10
2018-11-12T10:38:41.599Z,14.10
2018-11-12T10:41:13.387Z,14.10
2018-11-12T10:43:45.251Z,14.20
2018-11-12T10:46:16.593Z,14.20
2018-11-12T10:48:48.199Z,14.10
2018-11-12T10:51:19.155Z,14.30
2018-11-12T10:53:53.663Z,14.20
2018-11-12T10:56:25.396Z,14.10
2018-11-12T10:59:02.090Z,14.20
2018-11-12T11:02:36.811Z,14.30
2018-11-12T11:05:08.358Z,14.10
2018-11-12T11:07:40.709Z,14.20
2018-11-12T11:10:12.172Z,14.30
2018-11-12T11:12:44.613Z,14.50
2018-11-12T11:15:17.125Z,14.50
2018-11-12T11:17:48.693Z,14.40
2018-11-12T11:20:20.401Z,14.50
2018-11-12T11:22:52.027Z,14.60
2018-11-12T11:25:23.743Z,14.50
2018-11-12T11:27:55.101Z,14.60
2018-11-12T11:30:27.057Z,14.60
2018-11-12T11:32:58.932Z,14.70
2018-11-12T11:35:30.220Z,14.80
2018-11-12T11:38:01.309Z,14.80
2018-11-12T11:40:32.226Z,14.70
2018-11-12T11:43:03.446Z,14.60
2018-11-12T11:45:34.744Z,14.60
2018-11-12T11:48:05.522Z,14.80
2018-11-12T11:50:37.226Z,14.90
2018-11-12T11:53:08.417Z,15.00
2018-11-12T11:55:39.595Z,15.00
2018-11-12T11:58:10.599Z,15.00
2018-11-12T12:00:42.054Z,14.80
2018-11-12T12:03:13.022Z,14.70
2018-11-12T12:05:43.943Z,14.70
2018-11-12T12:08:14.531Z,14.70
2018-11-12T12:10:45.718Z,14.70
2018-11-12T12:13:17.879Z,14.60
2018-11-12T12:15:49.241Z,14.50
2018-11-12T12:18:20.039Z,14.50
2018-11-12T12:20:51.087Z,14.50
2018-11-12T12:23:22.478Z,14.50
2018-11-12T12:25:53.344Z,14.60
2018-11-12T12:28:24.253Z,14.90
2018-11-12T12:30:54.653Z,15.00
2018-11-12T12:33:26.027Z,14.80
2018-11-12T12:35:57.250Z,14.70
2018-11-12T12:38:28.882Z,14.70
2018-11-12T12:41:00.050Z,14.70
2018-11-12T12:43:31.597Z,14.70
2018-11-12T12:46:03.388Z,14.60
2018-11-12T12:48:35.092Z,14.60
2018-11-12T12:51:06.857Z,14.50
2018-11-12T12:53:39.199Z,14.40
2018-11-12T12:56:10.878Z,14.40
2018-11-12T12:58:42.002Z,14.30
2018-11-12T13:01:13.729Z,14.20
2018-11-12T13:03:44.601Z,14.20
2018-11-12T13:06:15.969Z,14.00
2018-11-12T13:08:48.227Z,14.00
2018-11-12T13:11:19.738Z,13.90
2018-11-12T13:13:51.010Z,13.80
2018-11-12T13:16:22.249Z,13.60
2018-11-12T13:18:53.555Z,13.50
2018-11-12T13:21:26.273Z,13.30
2018-11-12T13:23:57.204Z,13.20
2018-11-12T13:26:28.558Z,13.00
2018-11-12T13:28:59.916Z,13.00
2018-11-12T13:31:31.322Z,13.10
2018-11-12T13:34:02.276Z,13.10
2018-11-12T13:36:33.413Z,13.10
2018-11-12T13:39:06.011Z,13.00
2018-11-12T13:41:38.197Z,13.00
2018-11-12T13:44:09.566Z,13.00
2018-11-12T13:46:48.975Z,12.90
2018-11-12T13:49:20.963Z,12.90
2018-11-12T13:51:52.946Z,12.90
2018-11-12T13:54:24.408Z,12.90
2018-11-12T13:56:55.598Z,12.90
2018-11-12T13:59:26.550Z,12.90
2018-11-12T14:01:57.721Z,12.90
2018-11-12T14:04:34.373Z,12.90
2018-11-12T14:07:06.096Z,13.00
2018-11-12T14:09:38.655Z,13.00
2018-11-12T14:12:10.230Z,13.00
2018-11-12T14:14:41.606Z,12.90
2018-11-12T14:17:13.344Z,12.90
2018-11-12T14:19:44.888Z,12.90
2018-11-12T14:22:19.053Z,12.90
2018-11-12T14:24:50.891Z,12.80
2018-11-12T14:27:23.491Z,12.80
2018-11-12T14:30:02.569Z,12.80
2018-11-12T14:32:36.701Z,12.80
2018-11-12T14:35:12.452Z,12.80
2018-11-12T14:37:46.070Z,12.80
2018-11-12T14:40:18.409Z,12.80
2018-11-12T14:42:49.985Z,12.90
2018-11-12T14:45:22.096Z,12.90
2018-11-12T14:47:54.370Z,12.80
2018-11-12T14:50:25.848Z,12.80
2018-11-12T14:52:57.941Z,12.80
2018-11-12T14:55:30.152Z,12.80
2018-11-12T14:58:02.707Z,12.70
2018-11-12T15:00:34.465Z,12.70
2018-11-12T15:03:06.186Z,12.60
2018-11-12T15:05:36.990Z,12.60
2018-11-12T15:08:08.585Z,12.50
2018-11-12T15:10:39.055Z,12.50
2018-11-12T15:13:09.791Z,12.50
2018-11-12T15:15:40.900Z,12.40
2018-11-12T15:18:11.424Z,12.50
2018-11-12T15:20:43.022Z,12.40
2018-11-12T15:23:13.422Z,12.40
2018-11-12T15:25:43.564Z,12.50
2018-11-12T15:28:13.685Z,12.40
2018-11-12T15:30:43.918Z,12.30
2018-11-12T15:33:14.726Z,12.30
2018-11-12T15:35:45.160Z,12.30
2018-11-12T15:38:18.712Z,12.30
2018-11-12T15:40:48.858Z,12.30
2018-11-12T15:43:19.234Z,12.20
2018-11-12T15:45:57.605Z,12.20
2018-11-12T15:48:28.070Z,12.20
2018-11-12T15:50:59.953Z,12.20
2018-11-12T15:53:30.252Z,12.10
2018-11-12T15:56:00.872Z,12.20
2018-11-12T15:58:31.486Z,12.10
2018-11-12T16:01:07.081Z,12.10
2018-11-12T16:03:37.959Z,12.20
2018-11-12T16:06:08.440Z,12.20
2018-11-12T16:08:39.263Z,12.30
2018-11-12T16:11:10.087Z,12.30
2018-11-12T16:13:40.981Z,12.20
2018-11-12T16:16:11.770Z,12.20
2018-11-12T16:18:41.987Z,12.20
2018-11-12T16:21:12.685Z,12.20
2018-11-12T16:23:43.300Z,12.10
2018-11-12T16:26:14.987Z,12.10
2018-11-12T16:28:46.998Z,12.10
2018-11-12T16:31:18.162Z,12.10
2018-11-12T16:33:49.943Z,12.10
2018-11-12T16:36:21.265Z,12.10
2018-11-12T16:38:52.709Z,12.10
2018-11-12T16:41:24.401Z,12.10
2018-11-12T16:44:01.481Z,12.10
2018-11-12T16:46:33.357Z,12.10
2018-11-12T16:49:04.699Z,12.00
2018-11-12T16:51:36.493Z,12.10
2018-11-12T16:54:08.065Z,12.00
2018-11-12T16:56:39.314Z,12.00
2018-11-12T16:59:11.226Z,12.00
2018-11-12T17:01:42.369Z,12.00
2018-11-12T17:04:14.249Z,12.00
2018-11-12T17:06:45.298Z,12.10
2018-11-12T17:09:16.948Z,12.10
2018-11-12T17:11:48.571Z,12.10
2018-11-12T17:14:19.966Z,12.10
2018-11-12T17:16:50.529Z,12.10
2018-11-12T17:19:21.869Z,12.10
2018-11-12T17:21:53.031Z,12.10
2018-11-12T17:24:26.580Z,12.10
2018-11-12T17:26:59.276Z,12.00
2018-11-12T17:29:31.169Z,12.00
2018-11-12T17:32:03.196Z,12.00
2018-11-12T17:34:35.758Z,12.00
2018-11-12T17:37:08.743Z,12.00
2018-11-12T17:39:40.925Z,12.00
2018-11-12T17:42:12.191Z,12.00
2018-11-12T17:44:44.730Z,12.00
2018-11-12T17:47:16.851Z,12.00
2018-11-12T17:49:48.408Z,12.00
2018-11-12T17:52:21.177Z,12.00
2018-11-12T17:54:52.486Z,12.00
2018-11-12T17:57:24.751Z,12.00
2018-11-12T17:59:55.965Z,12.00
2018-11-12T18:02:27.581Z,12.00
2018-11-12T18:04:59.460Z,12.00
2018-11-12T18:07:31.968Z,11.90
2018-11-12T18:10:04.962Z,11.90
2018-11-12T18:12:36.919Z,11.90
2018-11-12T18:15:13.163Z,11.80
2018-11-12T18:17:44.694Z,11.80
2018-11-12T18:20:22.900Z,11.70
2018-11-12T18:22:55.786Z,11.70
2018-11-12T18:25:27.475Z,11.70
2018-11-12T18:27:59.626Z,11.70
2018-11-12T18:30:32.840Z,11.60
2018-11-12T18:33:04.601Z,11.60
2018-11-12T18:35:36.632Z,11.60
2018-11-12T18:39:12.306Z,11.60
2018-11-12T18:41:44.420Z,11.50
2018-11-12T18:44:16.864Z,11.50
2018-11-12T18:46:48.667Z,11.50
2018-11-12T18:49:20.387Z,11.50
2018-11-12T18:51:52.310Z,11.50
2018-11-12T18:54:23.320Z,11.50
2018-11-12T18:56:55.563Z,11.50
2018-11-12T18:59:26.213Z,11.50
2018-11-12T19:01:56.842Z,11.50
2018-11-12T19:04:27.436Z,11.50
2018-11-12T19:07:00.416Z,11.50
2018-11-12T19:09:31.355Z,11.40
2018-11-12T19:12:02.274Z,11.40
2018-11-12T19:14:33.508Z,11.30
2018-11-12T19:17:04.725Z,11.30
2018-11-12T19:19:35.853Z,11.40
2018-11-12T19:22:08.090Z,11.30
2018-11-12T19:24:38.980Z,11.40
2018-11-12T19:27:10.269Z,11.40
2018-11-12T19:29:41.882Z,11.40
2018-11-12T19:32:12.533Z,11.30
2018-11-12T19:34:43.919Z,11.10
2018-11-12T19:37:14.581Z,11.00
2018-11-12T19:39:45.147Z,10.90
2018-11-12T19:42:15.717Z,11.10
2018-11-12T19:44:47.021Z,11.30
2018-11-12T19:47:20.088Z,11.30
2018-11-12T19:49:50.735Z,11.40
2018-11-12T19:52:21.835Z,11.40
2018-11-12T19:54:52.407Z,11.40
2018-11-12T19:57:23.151Z,11.40
2018-11-12T19:59:55.422Z,11.40
2018-11-12T20:02:27.104Z,11.40
2018-11-12T20:04:58.807Z,11.40
2018-11-12T20:07:30.465Z,11.40
2018-11-12T20:10:02.438Z,11.40
2018-11-12T20:12:34.390Z,11.40
2018-11-12T20:15:06.688Z,11.40
2018-11-12T20:17:38.225Z,11.40
2018-11-12T20:20:14.250Z,11.40
2018-11-12T20:22:47.378Z,11.40
2018-11-12T20:25:20.550Z,11.40
2018-11-12T20:27:52.849Z,11.40
2018-11-12T20:30:29.694Z,11.40
2018-11-12T20:33:00.953Z,11.40
2018-11-12T20:35:32.552Z,11.40
2018-11-12T20:38:03.672Z,11.30
2018-11-12T20:40:35.098Z,11.20
2018-11-12T20:43:06.425Z,11.20
2018-11-12T20:45:37.910Z,11.10
2018-11-12T20:48:09.199Z,11.10
2018-11-12T20:50:40.354Z,11.10
2018-11-12T20:53:11.766Z,11.10
2018-11-12T20:55:43.149Z,11.10
2018-11-12T20:58:14.693Z,11.10
2018-11-12T21:00:45.633Z,11.10
2018-11-12T21:03:16.972Z,11.00
2018-11-12T21:05:48.513Z,11.00
2018-11-12T21:08:20.043Z,11.00
2018-11-12T21:10:51.276Z,11.00
2018-11-12T21:13:22.580Z,11.00
2018-11-12T21:15:54.318Z,11.00
2018-11-12T21:18:25.751Z,11.00
2018-11-12T21:20:56.937Z,11.00
2018-11-12T21:23:28.333Z,11.00
2018-11-12T21:25:59.966Z,11.00
2018-11-12T21:28:31.287Z,11.00
2018-11-12T21:31:03.046Z,10.90
2018-11-12T21:33:34.888Z,11.00
2018-11-12T21:36:06.342Z,10.90
2018-11-12T21:38:39.362Z,10.90
2018-11-12T21:41:11.618Z,11.00
2018-11-12T21:43:43.917Z,11.00
2018-11-12T21:46:16.223Z,10.90
2018-11-12T21:48:48.261Z,10.90
2018-11-12T21:51:20.485Z,10.90
2018-11-12T21:53:52.772Z,10.90
2018-11-12T21:56:24.499Z,10.90
2018-11-12T21:59:07.288Z,10.90
2018-11-12T22:01:39.260Z,10.80
2018-11-12T22:04:10.693Z,10.80
2018-11-12T22:06:42.109Z,10.80
2018-11-12T22:09:13.225Z,10.80
2018-11-12T22:11:44.433Z,10.70
2018-11-12T22:14:16.135Z,10.70
2018-11-12T22:16:48.187Z,10.70
2018-11-12T22:19:21.558Z,10.70
2018-11-12T22:21:52.920Z,10.70
2018-11-12T22:24:25.124Z,10.70
2018-11-12T22:26:57.207Z,10.70
2018-11-12T22:29:29.302Z,10.70
2018-11-12T22:32:00.753Z,10.60
2018-11-12T22:34:31.594Z,10.60
2018-11-12T22:37:03.395Z,10.60
2018-11-12T22:39:36.860Z,10.60
2018-11-12T22:42:07.516Z,10.50
2018-11-12T22:44:39.082Z,10.50
2018-11-12T22:47:11.487Z,10.50
2018-11-12T22:49:46.273Z,10.50
2018-11-12T22:52:18.697Z,10.40
2018-11-12T22:54:51.078Z,10.40
2018-11-12T22:57:23.192Z,10.40
2018-11-12T22:59:55.238Z,10.40
2018-11-12T23:02:27.745Z,10.40
2018-11-12T23:05:00.535Z,10.30
2018-11-12T23:07:32.150Z,10.30
2018-11-12T23:10:04.927Z,10.30
2018-11-12T23:12:36.174Z,10.30
2018-11-12T23:15:08.643Z,10.10
2018-11-12T23:17:41.305Z,10.10
2018-11-12T23:20:18.162Z,10.00
2018-11-12T23:22:50.707Z,9.80
2018-11-12T23:25:22.602Z,9.80
2018-11-12T23:27:55.084Z,9.70
2018-11-12T23:30:27.393Z,9.60
2018-11-12T23:32:58.893Z,9.60
2018-11-12T23:35:32.141Z,9.60
2018-11-12T23:38:05.474Z,9.70
2018-11-12T23:40:36.892Z,9.60
2018-11-12T23:43:08.721Z,9.60
2018-11-12T23:45:39.954Z,9.60
2018-11-12T23:48:11.824Z,9.60
2018-11-12T23:50:43.145Z,9.60
2018-11-12T23:53:14.623Z,9.60
2018-11-12T23:55:46.517Z,9.60
2018-11-12T23:58:18.670Z,9.60
